Time;durP1;ratioP1;P1;durP2;ratioP2;P2;SDS_P1;SDS_P2;PMS_P1;PMS_P2;Temp;Humidity;BMP_temperature;BMP_pressure;BME280_temperature;BME280_humidity;BME280_pressure;Samples;Min_cycle;Max_cycle;Signal;HPM_P1;HPM_P2
2022/05/20 00:00:31;;;;;;;7.50;4.63;;;16.10;99.90;;;;;;5034375;28;20028;-87
2022/05/20 00:02:57;;;;;;;8.75;4.57;;;16.10;99.90;;;;;;5038368;28;20531;-87
2022/05/20 00:05:23;;;;;;;6.88;4.10;;;16.10;99.90;;;;;;5038525;28;20069;-87
2022/05/20 00:07:49;;;;;;;6.15;4.57;;;16.00;99.90;;;;;;5037419;28;20061;-87
2022/05/20 00:10:16;;;;;;;8.25;4.60;;;15.90;99.90;;;;;;5043048;28;20064;-87
2022/05/20 00:12:43;;;;;;;7.00;4.60;;;15.80;99.90;;;;;;5043886;28;20033;-86
2022/05/20 00:15:11;;;;;;;7.28;4.65;;;15.70;99.90;;;;;;5041730;28;20033;-87
2022/05/20 00:17:37;;;;;;;9.55;4.63;;;15.60;99.90;;;;;;5039181;28;20033;-87
2022/05/20 00:20:05;;;;;;;5.88;4.75;;;15.60;99.90;;;;;;5038251;28;20025;-87
2022/05/20 00:22:31;;;;;;;8.52;4.35;;;15.60;99.90;;;;;;5036394;28;20726;-86
2022/05/20 00:27:41;;;;;;;6.20;4.75;;;15.60;99.90;;;;;;5042972;28;20044;-87
2022/05/20 00:30:08;;;;;;;9.35;5.00;;;15.60;99.90;;;;;;5040921;28;20021;-88
2022/05/20 00:32:34;;;;;;;7.55;5.10;;;15.60;99.90;;;;;;5042644;28;20520;-87
2022/05/20 00:34:59;;;;;;;6.85;4.43;;;15.50;99.90;;;;;;5024937;28;20041;-87
2022/05/20 00:37:25;;;;;;;8.10;5.72;;;15.40;99.90;;;;;;5030078;28;20543;-88
2022/05/20 00:39:51;;;;;;;7.03;4.78;;;15.40;99.90;;;;;;5039662;28;20022;-87
2022/05/20 00:42:18;;;;;;;6.40;4.68;;;15.40;99.90;;;;;;5042034;28;20025;-87
2022/05/20 00:44:44;;;;;;;12.52;5.03;;;15.40;99.90;;;;;;5038196;28;20029;-87
2022/05/20 00:47:12;;;;;;;7.63;4.90;;;15.40;99.90;;;;;;5040106;28;20084;-87
2022/05/20 00:49:42;;;;;;;8.15;5.43;;;15.40;99.90;;;;;;5035162;28;20035;-87
2022/05/20 00:52:11;;;;;;;7.28;4.88;;;15.40;99.90;;;;;;5019684;28;20095;-88
2022/05/20 00:54:44;;;;;;;5.93;4.68;;;15.40;99.90;;;;;;5038532;28;20053;-87
2022/05/20 00:57:17;;;;;;;8.02;5.13;;;15.30;99.90;;;;;;5043321;28;20404;-87
2022/05/20 00:59:51;;;;;;;7.30;5.40;;;15.30;99.90;;;;;;5042030;28;20077;-87
2022/05/20 01:02:21;;;;;;;9.10;5.88;;;15.40;99.90;;;;;;5038692;28;20024;-87
2022/05/20 01:04:48;;;;;;;8.18;5.72;;;15.40;99.90;;;;;;5038145;28;20136;-87
2022/05/20 01:07:18;;;;;;;7.15;4.97;;;15.40;99.90;;;;;;5037966;28;20033;-88
2022/05/20 01:09:44;;;;;;;8.40;5.32;;;15.40;99.90;;;;;;5036423;28;20033;-88
2022/05/20 01:12:10;;;;;;;8.95;5.82;;;15.20;99.90;;;;;;5034364;28;20234;-87
2022/05/20 01:14:36;;;;;;;7.72;5.40;;;15.30;99.90;;;;;;5014998;28;20485;-88
2022/05/20 01:17:02;;;;;;;7.63;5.45;;;15.40;99.90;;;;;;5032172;28;20028;-87
2022/05/20 01:19:34;;;;;;;9.13;5.53;;;15.40;99.90;;;;;;5023946;28;20041;-87
2022/05/20 01:21:59;;;;;;;6.70;4.93;;;15.30;99.90;;;;;;5039224;28;20017;-87
2022/05/20 01:24:26;;;;;;;10.18;6.18;;;15.30;99.90;;;;;;5043569;28;20028;-87
2022/05/20 01:26:52;;;;;;;8.35;5.88;;;15.20;99.90;;;;;;5040449;28;20029;-87
2022/05/20 01:29:18;;;;;;;9.30;6.40;;;15.20;99.90;;;;;;5041958;28;20400;-87
2022/05/20 01:31:43;;;;;;;7.93;5.13;;;15.30;99.90;;;;;;5034019;28;20404;-88
2022/05/20 01:34:09;;;;;;;10.68;5.97;;;15.30;99.90;;;;;;5021329;28;20040;-87
2022/05/20 01:36:35;;;;;;;10.38;5.43;;;15.30;99.90;;;;;;5033003;28;20034;-87
2022/05/20 01:39:00;;;;;;;7.43;5.45;;;15.30;99.90;;;;;;5031438;28;20032;-87
2022/05/20 01:41:45;;;;;;;7.60;4.85;;;15.40;99.90;;;;;;5033484;28;20096;-86
2022/05/20 01:44:20;;;;;;;9.85;6.22;;;15.40;99.90;;;;;;5042037;28;20030;-86
2022/05/20 01:46:52;;;;;;;7.47;4.93;;;15.50;99.90;;;;;;5036882;28;20043;-87
2022/05/20 01:49:36;;;;;;;10.18;6.05;;;15.60;99.90;;;;;;5032496;28;20028;-88
2022/05/20 01:52:17;;;;;;;8.40;5.43;;;15.70;99.90;;;;;;5052423;28;20025;-87
2022/05/20 01:55:01;;;;;;;7.53;5.18;;;15.70;99.90;;;;;;5031157;28;20079;-89
2022/05/20 01:57:30;;;;;;;9.30;6.05;;;15.70;99.90;;;;;;5019981;28;20519;-87
2022/05/20 02:00:23;;;;;;;7.25;5.90;;;15.90;99.90;;;;;;5041914;28;20024;-87
2022/05/20 02:03:26;;;;;;;11.50;5.72;;;15.90;99.90;;;;;;5073367;28;20091;-87
2022/05/20 02:06:09;;;;;;;12.00;6.43;;;15.90;99.90;;;;;;5033265;28;20030;-87
2022/05/20 02:08:47;;;;;;;7.28;5.43;;;15.90;99.90;;;;;;5031637;28;20025;-87
2022/05/20 02:11:22;;;;;;;8.73;6.43;;;15.80;99.90;;;;;;5026051;28;20029;-91
2022/05/20 02:14:21;;;;;;;10.65;5.93;;;15.80;99.90;;;;;;5029745;28;20116;-87
2022/05/20 02:17:07;;;;;;;10.48;5.50;;;15.70;99.90;;;;;;5026929;28;20049;-89
2022/05/20 02:19:39;;;;;;;13.57;6.93;;;15.70;99.90;;;;;;5029702;28;20036;-87
2022/05/20 02:22:11;;;;;;;14.55;6.25;;;15.50;99.90;;;;;;5043180;28;20086;-88
2022/05/20 02:24:39;;;;;;;12.32;6.45;;;15.30;99.90;;;;;;5040678;28;20036;-87
2022/05/20 02:27:08;;;;;;;12.05;6.25;;;15.20;99.90;;;;;;5042423;28;20063;-87
2022/05/20 02:29:52;;;;;;;10.13;6.47;;;15.10;99.90;;;;;;5036528;28;20064;-87
2022/05/20 02:32:31;;;;;;;11.00;7.15;;;15.00;99.90;;;;;;5039658;28;20037;-88
2022/05/20 02:34:57;;;;;;;13.52;7.72;;;14.90;99.90;;;;;;5036683;28;20063;-87
2022/05/20 02:37:34;;;;;;;11.88;7.53;;;14.90;99.90;;;;;;5033826;28;20404;-87
2022/05/20 02:40:01;;;;;;;10.30;7.50;;;14.80;99.90;;;;;;5029922;28;20062;-87
2022/05/20 02:42:28;;;;;;;11.32;7.15;;;14.80;99.90;;;;;;5064568;28;20541;-88
2022/05/20 02:44:55;;;;;;;13.73;7.90;;;14.70;99.90;;;;;;5033939;28;20025;-88
2022/05/20 02:47:21;;;;;;;11.68;6.93;;;14.70;99.90;;;;;;5030727;28;20084;-87
2022/05/20 02:49:47;;;;;;;13.80;7.50;;;14.60;99.90;;;;;;5035813;28;20037;-87
2022/05/20 02:52:13;;;;;;;11.43;7.20;;;14.70;99.90;;;;;;5043397;28;20029;-87
2022/05/20 02:54:39;;;;;;;10.52;6.85;;;14.60;99.90;;;;;;5041528;28;20540;-88
2022/05/20 02:57:05;;;;;;;10.52;6.90;;;14.60;99.90;;;;;;5022396;28;20064;-86
2022/05/20 03:04:59;;;;;;;8.82;6.55;;;14.50;99.90;;;;;;5037700;28;20040;-88
2022/05/20 03:07:25;;;;;;;12.70;6.90;;;14.50;99.90;;;;;;5040149;28;20025;-87
2022/05/20 03:09:54;;;;;;;9.90;6.43;;;14.50;99.90;;;;;;5035188;28;20051;-87
2022/05/20 03:12:20;;;;;;;9.93;6.72;;;14.50;99.90;;;;;;5036449;28;20041;-87
2022/05/20 03:14:45;;;;;;;11.75;6.43;;;14.40;99.90;;;;;;5029376;28;20053;-87
2022/05/20 03:17:11;;;;;;;10.00;6.22;;;14.50;99.90;;;;;;5027298;28;20037;-87
2022/05/20 03:19:37;;;;;;;9.15;6.50;;;14.40;99.90;;;;;;5024294;28;20507;-89
2022/05/20 03:22:05;;;;;;;9.00;6.03;;;14.40;99.90;;;;;;5045679;28;20025;-87
2022/05/20 03:24:31;;;;;;;9.07;6.15;;;14.40;99.90;;;;;;5034596;28;20080;-87
2022/05/20 03:26:57;;;;;;;9.50;7.15;;;14.40;99.90;;;;;;5040581;28;20193;-87
2022/05/20 03:29:24;;;;;;;13.50;6.63;;;14.60;99.90;;;;;;5038624;28;20029;-86
2022/05/20 03:31:50;;;;;;;11.23;6.60;;;14.60;99.90;;;;;;5037647;28;20072;-86
2022/05/20 03:34:17;;;;;;;9.40;6.10;;;14.70;99.90;;;;;;5036041;28;20029;-86
2022/05/20 03:36:48;;;;;;;9.30;6.32;;;14.80;99.90;;;;;;5022991;28;20051;-87
2022/05/20 03:39:19;;;;;;;9.07;6.35;;;14.70;99.90;;;;;;5019202;28;20511;-86
2022/05/20 03:41:46;;;;;;;10.43;5.97;;;14.70;99.90;;;;;;5035861;28;20025;-88
2022/05/20 03:44:14;;;;;;;8.48;6.00;;;14.70;99.90;;;;;;5030959;28;20025;-86
2022/05/20 03:46:46;;;;;;;8.88;6.53;;;14.70;99.90;;;;;;5028568;28;20095;-87
2022/05/20 03:49:12;;;;;;;10.18;6.75;;;14.70;99.90;;;;;;5034855;28;20045;-86
2022/05/20 03:51:38;;;;;;;10.50;6.70;;;14.60;99.90;;;;;;5041517;28;20040;-87
2022/05/20 03:54:04;;;;;;;11.25;6.93;;;14.70;99.90;;;;;;5026175;28;20021;-87
2022/05/20 03:56:30;;;;;;;8.98;6.10;;;14.70;99.90;;;;;;5043039;28;20048;-86
2022/05/20 03:58:56;;;;;;;10.70;6.72;;;14.70;99.90;;;;;;5039006;28;20059;-86
2022/05/20 04:04:06;;;;;;;11.57;7.20;;;14.80;99.90;;;;;;5039140;28;20614;-86
2022/05/20 04:06:32;;;;;;;10.48;6.93;;;14.90;99.90;;;;;;5020311;28;20133;-86
2022/05/20 04:08:58;;;;;;;11.30;7.53;;;14.80;99.90;;;;;;5033195;28;20350;-87
2022/05/20 04:11:25;;;;;;;8.25;6.53;;;14.80;99.90;;;;;;5036062;28;20488;-87
2022/05/20 04:13:51;;;;;;;9.85;6.32;;;14.90;99.90;;;;;;5034463;28;20051;-86
2022/05/20 04:16:17;;;;;;;11.35;6.82;;;14.90;99.90;;;;;;5033242;28;20669;-87
2022/05/20 04:18:43;;;;;;;10.82;6.72;;;14.90;99.90;;;;;;5014909;28;20069;-87
2022/05/20 04:21:14;;;;;;;8.73;7.13;;;14.90;99.90;;;;;;5047400;28;20036;-86
2022/05/20 04:23:41;;;;;;;9.52;6.78;;;15.00;99.90;;;;;;5042071;28;20044;-90
2022/05/20 04:26:07;;;;;;;10.73;6.88;;;15.00;99.90;;;;;;5042528;28;20079;-86
2022/05/20 04:28:33;;;;;;;11.73;7.10;;;15.00;99.90;;;;;;5025552;28;20037;-87
2022/05/20 04:31:01;;;;;;;10.25;6.30;;;15.10;99.90;;;;;;5033051;28;20447;-86
2022/05/20 04:33:27;;;;;;;11.13;7.38;;;15.20;99.90;;;;;;5038815;28;20090;-87
2022/05/20 04:35:53;;;;;;;10.23;7.20;;;15.20;99.90;;;;;;5027275;28;20037;-87
2022/05/20 04:38:20;;;;;;;15.00;7.35;;;15.40;99.90;;;;;;5015206;28;20041;-85
2022/05/20 04:48:59;;;;;;;10.20;6.78;;;15.80;99.90;;;;;;5030277;28;20047;-89
2022/05/20 04:51:25;;;;;;;8.48;6.00;;;15.90;99.90;;;;;;5018976;28;20407;-88
2022/05/20 04:56:34;;;;;;;9.40;6.53;;;15.90;99.90;;;;;;5033773;28;20466;-88
2022/05/20 04:59:01;;;;;;;10.00;6.80;;;15.90;99.90;;;;;;5041100;28;20119;-88
2022/05/20 05:01:26;;;;;;;10.82;6.90;;;15.80;99.90;;;;;;5029762;28;20132;-86
2022/05/20 05:03:52;;;;;;;11.43;7.22;;;15.70;99.90;;;;;;5037582;28;20116;-86
2022/05/20 05:06:18;;;;;;;12.93;7.55;;;15.80;99.90;;;;;;5020351;28;20030;-83
2022/05/20 05:08:43;;;;;;;10.68;7.40;;;15.60;99.90;;;;;;5022937;28;20076;-82
2022/05/20 05:11:09;;;;;;;11.50;7.78;;;15.70;99.90;;;;;;5021123;28;20033;-86
2022/05/20 05:13:34;;;;;;;9.60;6.85;;;15.70;99.90;;;;;;5032927;28;20037;-84
2022/05/20 05:16:08;;;;;;;14.50;7.45;;;15.80;99.90;;;;;;5020619;28;20041;-80
2022/05/20 05:18:37;;;;;;;12.98;8.35;;;15.80;99.90;;;;;;5030580;28;20309;-83
2022/05/20 05:21:03;;;;;;;12.25;7.88;;;15.90;99.90;;;;;;5022999;28;20029;-86
2022/05/20 05:23:29;;;;;;;9.82;6.97;;;16.10;99.90;;;;;;5030055;28;20036;-81
2022/05/20 05:25:55;;;;;;;11.38;7.28;;;16.20;99.90;;;;;;5014510;28;20033;-80
2022/05/20 05:28:21;;;;;;;15.63;8.40;;;16.30;99.90;;;;;;5018799;28;20030;-83
2022/05/20 05:30:52;;;;;;;11.45;7.70;;;16.10;99.90;;;;;;5030040;28;20068;-83
2022/05/20 05:33:20;;;;;;;10.32;7.80;;;16.20;99.90;;;;;;5007032;28;20069;-88
2022/05/20 05:35:45;;;;;;;11.25;6.93;;;16.40;99.90;;;;;;5013676;28;20099;-87
2022/05/20 05:38:12;;;;;;;14.70;7.47;;;16.50;99.90;;;;;;5054221;28;20492;-89
2022/05/20 05:40:40;;;;;;;12.13;6.13;;;16.70;99.90;;;;;;5028483;28;20038;-87
2022/05/20 05:43:06;;;;;;;10.55;6.93;;;16.90;99.90;;;;;;5015264;28;20030;-88
2022/05/20 05:45:34;;;;;;;11.07;6.70;;;17.00;99.90;;;;;;5012413;28;20072;-87
2022/05/20 05:48:11;;;;;;;14.50;6.72;;;17.20;99.90;;;;;;5023574;28;20022;-87
2022/05/20 05:50:39;;;;;;;9.63;6.38;;;17.20;99.90;;;;;;5016311;28;20026;-87
2022/05/20 05:53:12;;;;;;;11.20;6.63;;;17.40;99.90;;;;;;5006620;28;20037;-88
2022/05/20 05:55:40;;;;;;;9.18;6.30;;;17.60;99.90;;;;;;5030349;28;20312;-87
2022/05/20 05:58:06;;;;;;;10.82;6.22;;;17.70;99.90;;;;;;5025837;28;20034;-87
2022/05/20 06:00:33;;;;;;;10.98;7.15;;;17.80;99.90;;;;;;5019143;28;20039;-87
2022/05/20 06:02:59;;;;;;;11.45;6.07;;;18.00;99.90;;;;;;5064211;28;20485;-90
2022/05/20 06:05:24;;;;;;;12.88;6.55;;;18.10;99.90;;;;;;5043944;28;20029;-87
2022/05/20 06:07:51;;;;;;;13.98;7.50;;;18.10;99.90;;;;;;5036062;28;20493;-87
2022/05/20 06:10:17;;;;;;;9.77;7.32;;;18.30;99.90;;;;;;5032298;28;20029;-88
2022/05/20 06:12:43;;;;;;;14.98;7.00;;;18.40;99.90;;;;;;5030618;28;20064;-87
2022/05/20 06:15:14;;;;;;;8.73;6.75;;;18.30;98.30;;;;;;5035589;28;20053;-87
2022/05/20 06:17:39;;;;;;;10.57;7.85;;;18.40;99.90;;;;;;5031886;28;20038;-87
2022/05/20 06:20:06;;;;;;;16.90;7.25;;;18.50;97.80;;;;;;5046977;28;20369;-87
2022/05/20 06:22:31;;;;;;;9.35;6.53;;;18.50;99.90;;;;;;5045602;28;20029;-87
2022/05/20 06:24:57;;;;;;;10.98;6.60;;;18.50;97.90;;;;;;5028761;28;20507;-87
2022/05/20 06:27:23;;;;;;;9.93;6.88;;;18.60;97.80;;;;;;5036315;28;20048;-86
2022/05/20 06:29:50;;;;;;;11.48;7.50;;;18.70;98.60;;;;;;5042349;28;20032;-88
2022/05/20 06:32:17;;;;;;;12.48;6.93;;;18.90;97.50;;;;;;5031216;28;20045;-87
2022/05/20 06:40:16;;;;;;;9.80;6.88;;;19.60;99.00;;;;;;5058982;28;20052;-87
2022/05/20 06:42:45;;;;;;;10.65;7.05;;;19.70;96.10;;;;;;5032993;28;20021;-89
2022/05/20 06:45:13;;;;;;;11.45;6.90;;;19.80;94.30;;;;;;5037545;28;20041;-87
2022/05/20 06:47:39;;;;;;;10.75;6.95;;;19.80;94.80;;;;;;5039242;28;20033;-87
2022/05/20 06:50:06;;;;;;;11.57;6.75;;;19.90;91.50;;;;;;5026283;28;20029;-87
2022/05/20 06:52:32;;;;;;;10.63;7.05;;;20.00;90.60;;;;;;5027824;28;20030;-87
2022/05/20 06:54:57;;;;;;;10.32;6.15;;;20.10;90.10;;;;;;5058316;28;20540;-88
2022/05/20 06:57:26;;;;;;;8.70;6.20;;;20.30;87.70;;;;;;5024815;28;20496;-87
2022/05/20 06:59:53;;;;;;;8.63;6.22;;;20.40;86.00;;;;;;5045614;28;20096;-86
2022/05/20 07:02:20;;;;;;;9.95;6.70;;;20.50;87.80;;;;;;5053157;28;20043;-88
2022/05/20 07:04:46;;;;;;;12.63;7.47;;;20.50;85.40;;;;;;5049252;28;20030;-89
2022/05/20 07:07:12;;;;;;;8.98;6.45;;;20.60;85.50;;;;;;5033272;28;20037;-86
2022/05/20 07:09:37;;;;;;;9.15;6.10;;;20.70;81.60;;;;;;5049748;28;20088;-87
2022/05/20 07:12:04;;;;;;;9.82;6.90;;;20.80;83.60;;;;;;5044241;28;20033;-87
2022/05/20 07:14:30;;;;;;;11.48;6.85;;;20.90;83.20;;;;;;5044657;28;20033;-87
2022/05/20 07:16:56;;;;;;;12.93;6.65;;;21.00;80.00;;;;;;5049191;28;20029;-87
2022/05/20 07:19:22;;;;;;;10.40;7.03;;;21.10;79.90;;;;;;5048064;28;20051;-88
2022/05/20 07:21:48;;;;;;;12.35;7.25;;;21.30;81.20;;;;;;5057524;28;20089;-88
2022/05/20 07:24:14;;;;;;;16.08;7.88;;;21.40;83.40;;;;;;5058860;28;20029;-87
2022/05/20 07:26:40;;;;;;;15.18;7.93;;;21.50;80.50;;;;;;5055040;28;20035;-89
2022/05/20 07:29:08;;;;;;;15.70;7.05;;;21.70;81.90;;;;;;5043154;28;20120;-88
2022/05/20 07:31:34;;;;;;;19.13;7.90;;;21.90;80.10;;;;;;5043223;28;20037;-87
2022/05/20 07:34:01;;;;;;;15.05;7.15;;;22.00;82.30;;;;;;5043088;28;20116;-86
2022/05/20 07:36:27;;;;;;;14.43;7.20;;;22.20;87.30;;;;;;5042039;28;20033;-87
2022/05/20 07:38:53;;;;;;;16.13;7.78;;;22.20;77.50;;;;;;5036303;28;20040;-88
2022/05/20 07:41:19;;;;;;;15.77;7.63;;;22.40;79.60;;;;;;5012116;28;20033;-88
2022/05/20 07:43:45;;;;;;;16.23;8.13;;;22.40;77.90;;;;;;5026776;28;20064;-88
2022/05/20 07:46:11;;;;;;;12.25;7.53;;;22.60;83.20;;;;;;5036290;28;20061;-87
2022/05/20 07:48:36;;;;;;;16.40;7.85;;;22.70;74.20;;;;;;5042622;28;20033;-87
2022/05/20 07:51:12;;;;;;;9.38;6.80;;;22.60;71.80;;;;;;5028937;28;20087;-88
2022/05/20 07:53:44;;;;;;;11.65;7.75;;;22.70;73.50;;;;;;5032333;28;20041;-88
2022/05/20 07:56:20;;;;;;;12.73;7.63;;;22.70;72.20;;;;;;5021736;28;20057;-88
2022/05/20 07:58:56;;;;;;;17.40;8.00;;;22.80;71.20;;;;;;5037038;28;20099;-89
2022/05/20 08:01:27;;;;;;;12.23;7.55;;;23.00;71.80;;;;;;5037630;28;20037;-87
2022/05/20 08:07:00;;;;;;;12.80;8.25;;;23.40;73.40;;;;;;5029315;28;20075;-88
2022/05/20 08:09:26;;;;;;;12.25;7.43;;;23.30;69.10;;;;;;5038072;28;20036;-87
2022/05/20 08:11:52;;;;;;;13.82;7.63;;;23.40;71.90;;;;;;5032680;28;20029;-88
2022/05/20 08:14:18;;;;;;;12.40;7.20;;;23.60;70.30;;;;;;5035228;28;20033;-87
2022/05/20 08:16:43;;;;;;;12.98;7.28;;;23.70;70.10;;;;;;5031308;28;20037;-87
2022/05/20 08:19:09;;;;;;;9.82;7.75;;;23.80;72.50;;;;;;5039489;28;20021;-87
2022/05/20 08:21:35;;;;;;;9.65;7.13;;;24.00;69.10;;;;;;5047532;28;20108;-87
2022/05/20 08:24:01;;;;;;;11.18;8.18;;;24.10;76.90;;;;;;5040588;28;20027;-88
2022/05/20 08:26:26;;;;;;;14.52;7.50;;;24.20;72.10;;;;;;5023904;28;20021;-88
2022/05/20 08:28:52;;;;;;;17.77;7.40;;;24.20;70.60;;;;;;5015239;28;20037;-87
2022/05/20 08:31:18;;;;;;;15.25;7.68;;;24.40;69.00;;;;;;5037746;28;20037;-87
2022/05/20 08:33:44;;;;;;;12.77;7.78;;;24.60;69.20;;;;;;5034446;28;20040;-87
2022/05/20 08:36:10;;;;;;;12.13;6.78;;;24.50;61.50;;;;;;5037012;28;20550;-88
2022/05/20 08:38:37;;;;;;;11.27;7.22;;;24.60;67.30;;;;;;5027597;28;20071;-90
2022/05/20 08:41:04;;;;;;;13.38;7.57;;;24.60;60.20;;;;;;5030739;28;20024;-88
2022/05/20 08:43:33;;;;;;;12.80;7.38;;;24.80;62.70;;;;;;5033077;28;20035;-88
2022/05/20 08:46:00;;;;;;;9.43;7.15;;;24.80;60.10;;;;;;5040174;28;20024;-88
2022/05/20 08:48:26;;;;;;;10.73;7.40;;;25.00;59.20;;;;;;5036361;28;20136;-88
2022/05/20 08:50:55;;;;;;;16.60;7.25;;;25.00;57.80;;;;;;5041843;28;20032;-88
2022/05/20 08:53:53;;;;;;;14.45;6.88;;;25.10;64.10;;;;;;5041201;28;20036;-87
2022/05/20 08:56:23;;;;;;;12.43;7.82;;;25.40;61.00;;;;;;5028549;28;20068;-89
2022/05/20 08:58:49;;;;;;;;;;;25.50;58.90;;;;;;5019632;28;20073;-88
2022/05/20 09:01:14;;;;;;;9.63;7.40;;;25.30;53.80;;;;;;5038437;28;19927;-88
2022/05/20 09:03:40;;;;;;;9.10;6.93;;;25.60;60.60;;;;;;5036791;28;20037;-88
2022/05/20 09:06:09;;;;;;;11.90;7.75;;;25.80;56.10;;;;;;5036596;28;20033;-87
2022/05/20 09:08:35;;;;;;;14.27;7.25;;;25.80;59.80;;;;;;5063105;28;20028;-88
2022/05/20 09:11:04;;;;;;;9.07;6.43;;;26.00;55.00;;;;;;5035703;28;20021;-88
2022/05/20 09:16:19;;;;;;;11.77;7.70;;;26.30;54.70;;;;;;5020862;28;20041;-88
2022/05/20 09:19:03;;;;;;;10.88;8.05;;;26.20;53.20;;;;;;5033908;28;20091;-88
2022/05/20 09:21:35;;;;;;;12.20;7.75;;;26.60;54.90;;;;;;5042214;28;20029;-88
2022/05/20 09:24:04;;;;;;;15.13;8.02;;;26.60;53.60;;;;;;5030810;28;20396;-90
2022/05/20 09:26:39;;;;;;;15.82;10.88;;;26.70;55.60;;;;;;5033260;28;20041;-88
2022/05/20 09:29:16;;;;;;;12.25;8.25;;;26.60;51.30;;;;;;5030825;28;20037;-87
2022/05/20 09:31:56;;;;;;;11.52;8.07;;;26.70;57.10;;;;;;5026712;28;20040;-88
2022/05/20 09:34:25;;;;;;;12.63;8.05;;;26.80;54.00;;;;;;5032629;28;20180;-88
2022/05/20 09:37:18;;;;;;;12.55;8.25;;;27.00;52.50;;;;;;5033953;28;20044;-88
2022/05/20 09:39:48;;;;;;;13.00;8.00;;;27.20;52.90;;;;;;5038905;28;20090;-87
2022/05/20 09:42:15;;;;;;;11.20;8.25;;;27.30;52.50;;;;;;5031051;28;20025;-88
2022/05/20 09:44:44;;;;;;;13.15;8.13;;;27.60;53.30;;;;;;5027113;28;20029;-87
2022/05/20 09:47:24;;;;;;;10.95;7.80;;;27.80;55.70;;;;;;5028659;28;20033;-88
2022/05/20 09:50:03;;;;;;;10.48;8.02;;;27.70;52.20;;;;;;5049481;28;20063;-87
2022/05/20 09:52:32;;;;;;;10.45;7.50;;;27.60;51.80;;;;;;5042264;28;20026;-87
2022/05/20 09:55:12;;;;;;;11.13;7.18;;;27.80;52.10;;;;;;5040561;28;20075;-87
2022/05/20 09:57:47;;;;;;;;;;;27.70;50.10;;;;;;5032470;28;20074;-86
2022/05/20 10:00:26;;;;;;;12.05;8.90;;;27.80;51.70;;;;;;5035692;28;19908;-86
2022/05/20 10:03:07;;;;;;;11.47;8.13;;;27.70;49.60;;;;;;5040261;28;20112;-87
2022/05/20 10:05:47;;;;;;;10.02;8.50;;;27.80;54.80;;;;;;5039625;28;20100;-87
2022/05/20 10:08:34;;;;;;;16.50;8.02;;;28.20;50.70;;;;;;5045715;28;20473;-86
2022/05/20 10:11:12;;;;;;;49.45;12.60;;;28.50;52.80;;;;;;5031359;28;20034;-86
2022/05/20 10:13:53;;;;;;;9.85;7.57;;;28.80;53.90;;;;;;5029585;28;20038;-86
2022/05/20 10:16:53;;;;;;;11.30;8.48;;;28.90;52.70;;;;;;5034104;28;20044;-87
2022/05/20 10:19:33;;;;;;;8.90;7.45;;;29.00;52.40;;;;;;5022603;28;20388;-87
2022/05/20 10:22:19;;;;;;;11.18;8.40;;;28.80;48.20;;;;;;5040193;28;20029;-87
2022/05/20 10:25:08;;;;;;;11.25;7.50;;;29.20;50.70;;;;;;5045239;28;20048;-86
2022/05/20 10:28:01;;;;;;;10.13;7.72;;;29.00;48.80;;;;;;5036518;28;20037;-88
2022/05/20 10:33:32;;;;;;;12.10;8.23;;;28.90;49.00;;;;;;5037558;28;20523;-87
2022/05/20 10:35:58;;;;;;;13.65;8.32;;;29.20;53.20;;;;;;5036511;28;20720;-87
2022/05/20 10:38:40;;;;;;;16.77;8.27;;;29.50;50.40;;;;;;5043744;28;20040;-88
2022/05/20 10:41:12;;;;;;;13.60;8.57;;;29.50;47.60;;;;;;5032089;28;20070;-89
2022/05/20 10:50:25;;;;;;;14.23;8.35;;;29.80;47.70;;;;;;5025252;28;20072;-88
2022/05/20 10:53:12;;;;;;;9.02;7.40;;;30.10;46.90;;;;;;5039415;28;20084;-86
2022/05/20 10:56:01;;;;;;;11.02;8.27;;;30.30;45.30;;;;;;5039152;28;20094;-88
2022/05/20 10:58:57;;;;;;;9.02;7.25;;;30.80;42.10;;;;;;5036998;28;20026;-87
2022/05/20 11:01:31;;;;;;;12.82;8.60;;;31.30;42.80;;;;;;5067877;28;20045;-87
2022/05/20 11:04:22;;;;;;;9.73;7.70;;;30.80;40.30;;;;;;5037550;28;20052;-87
2022/05/20 11:07:16;;;;;;;10.25;7.15;;;31.10;42.20;;;;;;5049099;28;20105;-88
2022/05/20 11:09:54;;;;;;;13.27;8.38;;;31.50;40.90;;;;;;5026448;28;20576;-88
2022/05/20 11:12:38;;;;;;;10.82;6.55;;;32.00;39.00;;;;;;5063865;28;20535;-86
2022/05/20 11:15:07;;;;;;;7.63;5.68;;;32.10;32.70;;;;;;5021032;28;20488;-87
2022/05/20 11:18:29;;;;;;;9.25;6.10;;;32.00;33.30;;;;;;5045725;28;20460;-89
2022/05/20 11:21:07;;;;;;;9.88;5.57;;;31.80;34.10;;;;;;5045540;28;20112;-90
2022/05/20 11:23:51;;;;;;;6.88;5.55;;;31.90;32.40;;;;;;5031127;28;20557;-89
2022/05/20 11:26:38;;;;;;;8.10;5.28;;;32.00;29.70;;;;;;5043224;28;20040;-88
2022/05/20 11:29:37;;;;;;;11.68;5.68;;;31.90;29.80;;;;;;5040509;28;20029;-88
2022/05/20 11:32:19;;;;;;;7.03;4.78;;;31.80;31.20;;;;;;5049727;28;20411;-87
2022/05/20 11:35:10;;;;;;;7.63;4.90;;;32.10;29.30;;;;;;5050639;28;20029;-87
2022/05/20 11:37:47;;;;;;;7.65;5.25;;;32.40;30.00;;;;;;5037345;28;20060;-88
2022/05/20 11:40:22;;;;;;;8.48;5.50;;;32.60;33.70;;;;;;5033170;28;20491;-86
2022/05/20 11:43:00;;;;;;;6.43;4.82;;;32.60;30.00;;;;;;5025979;28;20033;-86
2022/05/20 11:45:51;;;;;;;9.23;5.63;;;32.80;30.20;;;;;;5028991;28;20074;-88
2022/05/20 11:48:37;;;;;;;9.30;4.93;;;32.90;30.50;;;;;;5037803;28;20031;-88
2022/05/20 11:51:16;;;;;;;13.02;5.70;;;32.60;29.00;;;;;;5043943;28;20146;-88
2022/05/20 11:53:59;;;;;;;8.67;4.90;;;31.80;31.00;;;;;;5036109;28;20039;-88
2022/05/20 11:56:28;;;;;;;7.68;4.82;;;32.40;33.00;;;;;;5035169;28;20403;-88
2022/05/20 11:59:50;;;;;;;8.13;5.32;;;32.60;31.10;;;;;;5034968;28;20057;-88
2022/05/20 12:02:18;;;;;;;11.05;5.38;;;32.00;29.20;;;;;;5014118;28;20037;-88
2022/05/20 12:04:46;;;;;;;7.18;5.22;;;32.40;29.00;;;;;;4967254;28;20038;-88
2022/05/20 12:07:25;;;;;;;7.95;5.32;;;32.50;28.90;;;;;;5022791;28;20034;-88
2022/05/20 12:09:55;;;;;;;;;;;32.90;28.90;;;;;;5031760;28;20036;-88
2022/05/20 12:12:24;;;;;;;;;;;32.90;28.20;;;;;;5029323;28;20129;-88
2022/05/20 12:15:11;;;;;;;9.70;5.60;;;33.30;27.70;;;;;;5026935;28;19909;-88
2022/05/20 12:17:39;;;;;;;7.72;5.07;;;33.60;29.00;;;;;;5037091;28;20029;-88
2022/05/20 12:26:00;;;;;;;11.23;5.32;;;33.70;28.60;;;;;;5023346;28;20033;-85
2022/05/20 12:28:25;;;;;;;7.15;5.15;;;34.60;28.40;;;;;;5040715;28;20330;-86
2022/05/20 12:31:14;;;;;;;6.40;5.03;;;34.00;26.60;;;;;;5036301;28;20492;-84
2022/05/20 12:33:51;;;;;;;6.15;4.88;;;34.30;27.20;;;;;;5041163;28;20054;-90
2022/05/20 12:36:27;;;;;;;9.68;5.25;;;34.00;26.50;;;;;;5028746;28;20038;-86
2022/05/20 12:39:18;;;;;;;12.10;5.40;;;34.40;28.20;;;;;;5029442;28;20544;-85
2022/05/20 12:41:50;;;;;;;7.18;4.53;;;34.40;26.30;;;;;;5022014;28;20034;-84
2022/05/20 12:44:15;;;;;;;7.60;5.60;;;34.60;27.50;;;;;;5029147;28;20036;-84
2022/05/20 12:46:50;;;;;;;7.95;4.78;;;35.00;26.70;;;;;;5039525;28;20447;-85
2022/05/20 12:49:17;;;;;;;7.85;5.13;;;35.30;26.10;;;;;;5027531;28;20033;-85
2022/05/20 12:51:48;;;;;;;8.85;5.00;;;34.60;27.10;;;;;;5016504;28;20045;-84
2022/05/20 12:54:17;;;;;;;6.03;5.32;;;34.40;28.30;;;;;;5036927;28;20029;-84
2022/05/20 12:56:43;;;;;;;14.47;5.57;;;34.50;25.80;;;;;;5041142;28;20037;-85
2022/05/20 12:59:27;;;;;;;6.63;4.80;;;34.50;25.80;;;;;;5022204;28;20304;-84
2022/05/20 13:01:57;;;;;;;11.48;4.88;;;34.40;26.00;;;;;;5030996;28;20507;-83
2022/05/20 13:04:28;;;;;;;10.63;4.82;;;34.20;25.20;;;;;;5036238;28;20033;-85
2022/05/20 13:06:56;;;;;;;6.95;4.80;;;34.70;26.70;;;;;;5032962;28;20113;-85
2022/05/20 13:09:35;;;;;;;7.90;5.43;;;34.80;25.90;;;;;;5031658;28;20028;-85
2022/05/20 13:12:08;;;;;;;7.15;5.22;;;35.10;26.20;;;;;;5027517;28;20037;-85
2022/05/20 13:14:34;;;;;;;7.15;5.30;;;35.20;25.00;;;;;;5025706;28;20021;-86
2022/05/20 13:17:03;;;;;;;8.43;4.70;;;35.10;24.30;;;;;;5044659;28;20025;-86
2022/05/20 13:19:47;;;;;;;8.13;5.20;;;35.20;25.30;;;;;;5042688;28;20029;-86
2022/05/20 13:22:15;;;;;;;10.90;5.07;;;35.10;25.10;;;;;;5035786;28;20024;-87
2022/05/20 13:24:41;;;;;;;8.25;5.28;;;34.20;24.20;;;;;;5035175;28;20106;-85
2022/05/20 13:27:10;;;;;;;10.85;5.10;;;35.10;24.80;;;;;;5034727;28;20749;-86
2022/05/20 13:29:37;;;;;;;5.97;4.50;;;35.00;25.80;;;;;;5029456;28;20028;-85
2022/05/20 13:32:18;;;;;;;6.05;4.25;;;34.90;24.70;;;;;;5033369;28;20034;-86
2022/05/20 13:34:47;;;;;;;8.10;4.78;;;35.30;23.00;;;;;;5054284;28;20057;-86
2022/05/20 13:37:15;;;;;;;10.18;5.38;;;34.80;23.80;;;;;;5041499;28;20053;-86
2022/05/20 13:39:42;;;;;;;11.90;5.00;;;34.60;26.80;;;;;;5046624;28;20045;-86
2022/05/20 13:42:12;;;;;;;6.65;4.38;;;34.70;27.50;;;;;;5029417;28;20028;-85
2022/05/20 13:44:43;;;;;;;8.65;5.25;;;35.60;25.70;;;;;;5029397;28;20109;-86
2022/05/20 13:49:57;;;;;;;6.25;4.88;;;36.50;24.50;;;;;;5041408;28;20122;-85
2022/05/20 13:52:24;;;;;;;10.65;5.07;;;36.10;23.50;;;;;;5026136;28;20033;-85
2022/05/20 13:54:58;;;;;;;8.13;4.88;;;35.40;25.30;;;;;;5036419;28;20046;-85